• Join FlightAware (Why Join?)
  • Login
  • US Flag 
01:45PM EDT


 

Airport Tracker/Info


-or-


 

Live Flight TrackerFlight Track Log ✈ EJA922 ✈ 21-Jun-2013 ✈ KPTK - KOKC

Flight Track Log - Related Links

Times and Time Zones

All times are in EDT time to prevent confusion due to time zone crossing. See the EJA922 flight status page for this flight to view local times or setup timezone preferences in your user account.

Time Position Orientation Groundspeed Altitude Reporting Facility
EDT Latitude Longitude Course Direction KTS MPH feet Rate Location/Type
12:23PM 42.6200 -83.3850 168° South 230 265 5,000  Level Cleveland Center
12:24PM 42.5889 -83.4628 242° Southwest 232 267 5,000  Level Cleveland Center
12:25PM 42.5664 -83.5264 244° Southwest 233 268 5,000 1,320 Level Cleveland Center
12:26PM 42.5306 -83.6264 244° Southwest 299 344 7,600 2,940 Climbing Cleveland Center
12:27PM 42.4928 -83.7089 238° Southwest 280 322 11,100 2,820 Climbing Cleveland Center
12:28PM 42.4108 -83.7303 191° South 320 368 13,100 900 Climbing Cleveland Center
12:29PM 42.3086 -83.7364 183° South 383 441 13,000  Descending Cleveland Center
12:30PM 42.1936 -83.7475 184° South 401 461 13,200 660 Climbing Cleveland Center
12:31PM 42.0764 -83.7583 184° South 413 475 14,400 1,200 Climbing Cleveland Center
12:32PM 41.9594 -83.7667 183° South 426 490 15,600 1,380 Climbing Cleveland Center
12:33PM 41.8383 -83.7772 184° South 432 497 17,200 1,500 Climbing Cleveland Center
12:34PM 41.7192 -83.7881 184° South 437 503 18,700 1,680 Climbing Cleveland Center
12:35PM 41.6114 -83.8411 200° South 416 479 20,600 1,740 Climbing Cleveland Center
12:36PM 41.5675 -83.8792 213° Southwest 415 478 21,600 1,740 Climbing Chicago Center
12:37PM 41.4686 -83.9581 211° Southwest 415 478 23,500 1,800 Climbing Chicago Center
12:38PM 41.3706 -84.0367 211° Southwest 412 474 25,400 1,980 Climbing Chicago Center
12:39PM 41.2569 -84.1386 214° Southwest 412 474 27,700 1,980 Climbing Chicago Center
12:40PM 41.2111 -84.2783 246° West 413 475 29,600 1,740 Climbing Chicago Center
12:41PM 41.1739 -84.4281 252° West 425 489 31,400 1,740 Climbing Chicago Center
12:42PM 41.1361 -84.5789 252° West 431 496 33,300 1,200 Climbing Chicago Center
12:43PM 41.0914 -84.7342 249° West 448 516 34,000 360 Climbing Chicago Center
12:44PM 41.0283 -84.8989 243° Southwest 489 563 34,100 480 Climbing Chicago Center
12:45PM 40.9650 -85.0719 244° Southwest 511 588 35,100 1,140 Climbing Chicago Center
12:46PM 40.8861 -85.2803 243° Southwest 524 603 36,500 1,200 Climbing Chicago Center
12:47PM 40.8203 -85.4569 244° Southwest 531 611 37,600 1,020 Climbing Chicago Center
12:48PM 40.7536 -85.6322 243° Southwest 532 612 38,600 960 Climbing Chicago Center
12:49PM 40.6883 -85.8047 244° Southwest 527 606 39,700 660 Climbing Chicago Center
12:50PM 40.6178 -85.9917 244° Southwest 522 601 40,000 120 Climbing Chicago Center
12:51PM 40.5567 -86.1497 243° Southwest 493 567 40,000  Level Chicago Center
12:52PM 40.4975 -86.3047 243° Southwest 481 554 40,000  Level Chicago Center
12:53PM 40.4361 -86.4622 243° Southwest 488 562 40,000  Level Chicago Center
12:54PM 40.3733 -86.6222 243° Southwest 496 571 40,000  Level Chicago Center
12:55PM 40.2975 -86.8156 243° Southwest 503 579 40,000  Level Chicago Center
12:56PM 40.2339 -86.9775 243° Southwest 504 580 40,000  Level Chicago Center
12:57PM 40.1694 -87.1389 242° Southwest 505 581 40,000  Level Chicago Center
12:58PM 40.1039 -87.3019 242° Southwest 507 583 40,000  Level Chicago Center
12:59PM 40.0389 -87.4631 242° Southwest 507 583 40,000  Level Chicago Center
01:00PM 39.9614 -87.6581 243° Southwest 506 582 40,000  Level Chicago Center
01:02PM 39.8950 -87.8189 242° Southwest 506 582 40,000  Level Chicago Center
01:03PM 39.8286 -87.9817 242° Southwest 508 585 40,000  Level Chicago Center
01:03PM 39.7853 -88.0836 241° Southwest 509 586 40,000  Level Kansas City Center
01:04PM 39.7481 -88.1753 242° Southwest 508 585 40,000  Level Indianapolis Center
01:05PM 39.6811 -88.3381 242° Southwest 511 588 40,000  Level Indianapolis Center
01:06PM 39.6111 -88.5044 241° Southwest 515 593 40,000  Level Indianapolis Center
01:07PM 39.5422 -88.6681 241° Southwest 517 595 40,000  Level Indianapolis Center
01:08PM 39.4753 -88.8325 242° Southwest 516 594 40,000  Level Indianapolis Center
01:09PM 39.4097 -88.9839 241° Southwest 520 598 40,000  Level Chicago Center
01:09PM 39.3722 -89.0706 241° Southwest 521 600 40,000  Level Kansas City Center
01:10PM 39.3031 -89.2344 241° Southwest 522 601 40,000  Level Kansas City Center
01:11PM 39.2197 -89.4303 241° Southwest 521 600 40,000  Level Kansas City Center
01:12PM 39.1453 -89.6039 241° Southwest 522 601 40,000  Level Kansas City Center
01:13PM 39.0753 -89.7664 241° Southwest 521 600 40,000  Level Kansas City Center
01:14PM 38.9997 -89.9419 241° Southwest 522 601 40,000  Level Kansas City Center
01:15PM 38.9375 -90.0794 240° Southwest 520 598 40,000  Level Kansas City Center
01:17PM 38.8525 -90.2694 240° Southwest 515 593 40,000  Level Kansas City Center
01:18PM 38.7817 -90.4331 241° Southwest 519 597 40,000  Level Kansas City Center
01:19PM 38.7100 -90.5956 241° Southwest 524 603 40,000  Level Kansas City Center
01:20PM 38.6417 -90.7436 239° Southwest 534 615 40,000  Level Kansas City Center
01:21PM 38.5561 -90.9356 240° Southwest 527 606 40,000  Level Kansas City Center
01:22PM 38.4844 -91.0936 240° Southwest 516 594 40,000  Level Kansas City Center
01:23PM 38.4125 -91.2533 240° Southwest 519 597 40,000  Level Kansas City Center
01:24PM 38.3331 -91.4289 240° Southwest 518 596 40,000  Level Kansas City Center
01:25PM 38.2594 -91.5869 239° Southwest 518 596 40,000  Level Kansas City Center
01:26PM 38.1892 -91.7403 240° Southwest 504 580 40,000  Level Kansas City Center
01:27PM 38.1194 -91.8903 239° Southwest 494 568 40,000  Level Kansas City Center
01:28PM 38.0511 -92.0353 239° Southwest 473 544 40,000  Level Kansas City Center
01:29PM 37.9811 -92.1953 241° Southwest 483 556 40,000  Level Kansas City Center
01:30PM 37.9106 -92.3356 238° Southwest 481 554 40,000  Level Kansas City Center
01:31PM 37.8425 -92.4733 238° Southwest 469 540 40,000  Level Kansas City Center
01:32PM 37.7794 -92.6122 240° Southwest 460 529 40,000  Level Kansas City Center
01:33PM 37.6989 -92.7822 239° Southwest 458 527 40,000  Level Kansas City Center
01:34PM 37.6325 -92.9183 238° Southwest 456 525 40,000  Level Kansas City Center
01:35PM 37.5661 -93.0561 239° Southwest 457 526 40,000  Level Kansas City Center
01:36PM 37.5006 -93.1942 239° Southwest 458 527 40,000  Level Kansas City Center
01:37PM 37.4336 -93.3322 239° Southwest 460 529 40,000  Level Kansas City Center
01:38PM 37.3669 -93.4694 239° Southwest 460 529 40,000  Level Kansas City Center
01:39PM 37.2992 -93.6061 238° Southwest 461 531 40,000  Level Kansas City Center
01:40PM 37.2192 -93.7714 239° Southwest 460 529 40,000  Level Kansas City Center
01:41PM 37.1514 -93.9075 238° Southwest 460 529 40,000  Level Kansas City Center
01:42PM 37.0814 -94.0489 238° Southwest 461 531 40,000  Level Kansas City Center
01:43PM 37.0133 -94.1850 238° Southwest 461 531 40,000  Level Kansas City Center
01:44PM 36.9458 -94.3214 238° Southwest 461 531 40,000  Level Kansas City Center
01:45PM 36.8767 -94.4575 238° Southwest 462 532 40,000  Level Kansas City Center
01:47PM 36.8097 -94.5936 238° Southwest 461 531 40,000  Level Kansas City Center
01:48PM 36.7275 -94.7556 238° Southwest 460 529 40,000  Level Kansas City Center
01:49PM 36.6600 -94.8889 238° Southwest 457 526 40,000  Level Kansas City Center
01:50PM 36.5914 -95.0236 238° Southwest 458 527 40,000  Level Kansas City Center
01:51PM 36.5272 -95.1564 239° Southwest 457 526 40,000 -420 Level Kansas City Center
01:52PM 36.4936 -95.3064 254° West 451 519 39,200 -900 Descending Kansas City Center
01:53PM 36.4561 -95.4533 252° West 451 519 38,200 -1,320 Descending Kansas City Center
01:54PM 36.4125 -95.6267 253° West 443 510 36,500 -1,620 Descending Kansas City Center
01:55PM 36.3778 -95.7639 253° West 442 509 34,900 -1,620 Descending Kansas City Center
01:56PM 36.3417 -95.9042 252° West 433 498 33,200 -1,680 Descending Kansas City Center
01:57PM 36.3053 -96.0464 252° West 432 497 31,500 -1,860 Descending Kansas City Center
01:58PM 36.2578 -96.2258 252° West 451 519 29,400 -2,040 Descending Kansas City Center
01:59PM 36.2192 -96.3756 252° West 458 527 27,400 -2,220 Descending Kansas City Center
02:00PM 36.1842 -96.5094 252° West 419 482 24,900 -2,760 Descending Kansas City Center
02:01PM 36.1472 -96.6428 251° West 410 472 21,800 -3,060 Descending Kansas City Center
02:02PM 36.1097 -96.7847 252° West 418 481 18,600 -2,880 Descending Kansas City Center
02:03PM 36.0744 -96.9167 252° West 410 472 15,900 -2,280 Descending Kansas City Center
02:04PM 36.0436 -97.0306 252° West 361 415 13,900 -2,160 Descending Kansas City Center
02:05PM 36.0078 -97.1597 251° West 338 389 11,500 -2,100 Descending Kansas City Center
02:06PM 35.9442 -97.2308 222° Southwest 320 368 9,600 -1,500 Descending Kansas City Center
02:07PM 35.8783 -97.2831 213° Southwest 301 346 8,500 -1,080 Descending Kansas City Center
02:09PM 35.7594 -97.3753 212° Southwest 263 303 6,300 -1,080 Descending Kansas City Center
02:10PM 35.7025 -97.4186 212° Southwest 251 289 5,300 -1,140 Descending Kansas City Center
02:11PM 35.6350 -97.4725 213° Southwest 244 281 4,000 -840 Descending Kansas City Center
02:12PM 35.5939 -97.5031 211° Southwest 242 278 4,000  Level Fort Worth Center
02:13PM 35.5375 -97.5461 212° Southwest 240 276 4,000 -480 Level Fort Worth Center
02:14PM 35.4936 -97.5844 215° Southwest 210 242 3,100 -1,020 Descending Fort Worth Center
02:15PM 35.4436 -97.5919 187° South 165 190 2,100 -1,020 Descending Fort Worth Center